Showers in the vicinity Current Weather (METAR) For Amsterdam Schiphol Airport

All times on the weather descriptions are local

Observed at 12:55 - (27 mins ago)

 Showers in the vicinity

22°C

Showers in the vicinity
Clouds: Few Clouds at 3,200ft
Wind: 040° at 11 knots, varying from 010° to 080
Visibility: Greater than 10km
QNH: 1016
Dew Point: 16°C
Runways with a headwind: Runway 06, Runway 09, Runways 36L/C/R

Sunrise Today: 05:49
Sunset Today: 21:45

Forecast Weather (TAF) For Amsterdam Schiphol Airport

Issued at 02:00 - (5 days 12 hrs ago)


Runways with a headwind: Unable to determine, wind is clam

Forecast valid until 02:00 on Thursday

METAR/TAF RAW METAR / TAF

EHAM 251055Z 04011KT 010V080 9999 VCSH FEW032 22/16 Q1016 NOSIG

Weather Widget

Put weather from any of our airports on your website with our weather widget.

Find Another Search

Airport Search


Please Wait Please Wait - Loading
Close
Close

Login

Username:

Password:

Remember Me:

Remember me on this computer

Forgotten your password? Get a reset password sent to your registered e-mail address

Close

User Private Message

Subject:

Message: